createdAt,value
2018-12-10T00:03:41.829Z,7.10
2018-12-10T00:11:42.333Z,7.20
2018-12-10T00:19:43.352Z,7.20
2018-12-10T00:38:51.422Z,7.10
2018-12-10T00:41:32.045Z,7.10
2018-12-10T00:44:03.147Z,7.20
2018-12-10T00:46:47.316Z,7.20
2018-12-10T00:49:28.999Z,7.20
2018-12-10T00:52:14.456Z,7.20
2018-12-10T00:54:45.978Z,7.20
2018-12-10T00:57:26.424Z,7.20
2018-12-10T01:00:05.076Z,7.20
2018-12-10T01:05:23.346Z,7.10
2018-12-10T01:16:26.727Z,7.00
2018-12-10T01:19:12.467Z,6.90
2018-12-10T01:21:56.654Z,6.90
2018-12-10T01:24:32.092Z,6.80
2018-12-10T01:27:11.371Z,6.70
2018-12-10T01:37:57.113Z,6.60
2018-12-10T01:43:16.256Z,6.50
2018-12-10T01:59:40.214Z,6.70
2018-12-10T02:04:57.424Z,6.70
2018-12-10T02:10:30.098Z,6.90
2018-12-10T02:15:54.170Z,7.00
2018-12-10T02:21:25.593Z,7.00
2018-12-10T02:24:08.470Z,7.10
2018-12-10T02:26:49.078Z,7.10
2018-12-10T02:29:28.723Z,7.20
2018-12-10T02:40:14.492Z,7.10
2018-12-10T02:45:27.982Z,7.00
2018-12-10T02:50:41.766Z,6.90
2018-12-10T02:53:16.377Z,6.90
2018-12-10T02:55:47.704Z,6.90
2018-12-10T02:58:20.723Z,6.80
2018-12-10T03:00:53.129Z,6.70
2018-12-10T03:03:26.460Z,6.70
2018-12-10T03:05:57.745Z,6.70
2018-12-10T03:08:35.255Z,6.70
2018-12-10T03:11:09.269Z,6.70
2018-12-10T03:13:44.581Z,6.70
2018-12-10T03:16:15.716Z,6.70
2018-12-10T03:18:51.250Z,6.70
2018-12-10T03:21:22.869Z,6.60
2018-12-10T03:23:55.089Z,6.60
2018-12-10T03:26:29.035Z,6.60
2018-12-10T03:31:36.579Z,6.90
2018-12-10T03:34:10.333Z,7.00
2018-12-10T03:36:44.050Z,7.00
2018-12-10T03:39:20.694Z,7.00
2018-12-10T03:41:59.824Z,6.90
2018-12-10T03:47:16.677Z,6.90
2018-12-10T03:52:39.483Z,6.90
2018-12-10T03:55:15.632Z,6.80
2018-12-10T03:57:51.768Z,6.80
2018-12-10T04:00:38.783Z,6.80
2018-12-10T04:03:09.549Z,6.90
2018-12-10T04:05:48.239Z,6.90
2018-12-10T04:08:27.936Z,6.90
2018-12-10T04:13:52.296Z,6.70
2018-12-10T04:16:28.801Z,6.70
2018-12-10T04:19:04.757Z,6.70
2018-12-10T04:21:41.026Z,6.70
2018-12-10T04:24:17.221Z,6.70
2018-12-10T04:26:48.271Z,6.70
2018-12-10T04:29:21.569Z,6.70
2018-12-10T04:31:57.582Z,6.60
2018-12-10T04:34:28.364Z,6.40
2018-12-10T04:36:59.828Z,6.30
2018-12-10T04:39:34.345Z,6.30
2018-12-10T04:42:09.609Z,6.30
2018-12-10T04:49:57.905Z,6.40
2018-12-10T04:52:34.271Z,6.40
2018-12-10T04:55:10.888Z,6.40
2018-12-10T04:57:48.970Z,6.40
2018-12-10T05:02:57.021Z,6.40
2018-12-10T05:05:34.380Z,6.40
2018-12-10T05:08:18.847Z,6.50
2018-12-10T05:10:51.847Z,6.50
2018-12-10T05:13:23.867Z,6.40
2018-12-10T05:16:09.260Z,6.40
2018-12-10T05:21:20.765Z,6.40
2018-12-10T05:26:39.908Z,6.40
2018-12-10T05:32:02.084Z,6.50
2018-12-10T05:34:45.720Z,6.40
2018-12-10T05:37:20.083Z,6.40
2018-12-10T05:39:59.130Z,6.40
2018-12-10T05:42:33.434Z,6.30
2018-12-10T05:47:42.220Z,6.40
2018-12-10T05:50:21.577Z,6.40
2018-12-10T05:53:00.997Z,6.40
2018-12-10T05:55:34.768Z,6.40
2018-12-10T05:58:05.417Z,6.40
2018-12-10T06:05:56.712Z,6.40
2018-12-10T06:08:29.667Z,6.30
2018-12-10T06:11:01.940Z,6.30
2018-12-10T06:13:44.780Z,6.40
2018-12-10T06:16:17.293Z,6.40
2018-12-10T06:18:49.547Z,6.30
2018-12-10T06:21:28.994Z,6.30
2018-12-10T06:24:10.647Z,6.20
2018-12-10T06:29:19.940Z,6.10
2018-12-10T06:31:56.398Z,6.20
2018-12-10T06:34:28.247Z,6.20
2018-12-10T06:37:00.404Z,6.20
2018-12-10T06:39:30.911Z,6.20
2018-12-10T06:42:03.019Z,6.10
2018-12-10T06:44:33.974Z,6.00
2018-12-10T06:47:08.213Z,5.90
2018-12-10T06:49:39.993Z,5.90
2018-12-10T06:52:14.286Z,5.90
2018-12-10T06:54:46.839Z,5.90
2018-12-10T07:00:17.624Z,5.90
2018-12-10T07:02:50.986Z,6.00
2018-12-10T07:05:22.757Z,6.10
2018-12-10T07:07:55.522Z,6.10
2018-12-10T07:10:34.308Z,6.00
2018-12-10T07:15:49.014Z,5.90
2018-12-10T07:18:27.492Z,5.90
2018-12-10T07:21:10.376Z,6.00
2018-12-10T07:23:50.544Z,6.10
2018-12-10T07:34:12.481Z,5.90
2018-12-10T07:36:42.073Z,5.90
2018-12-10T07:39:11.702Z,5.90
2018-12-10T07:41:42.504Z,5.90
2018-12-10T07:44:17.273Z,5.90
2018-12-10T07:46:48.649Z,6.00
2018-12-10T07:49:25.080Z,6.10
2018-12-10T07:54:45.349Z,6.20
2018-12-10T07:57:17.587Z,6.20
2018-12-10T07:59:51.092Z,6.20
2018-12-10T08:02:29.681Z,6.10
2018-12-10T08:07:38.054Z,6.00
2018-12-10T08:10:09.360Z,5.90
2018-12-10T08:12:39.684Z,5.70
2018-12-10T08:15:09.960Z,5.60
2018-12-10T08:17:41.645Z,5.60
2018-12-10T08:20:13.603Z,5.50
2018-12-10T08:22:49.167Z,5.50
2018-12-10T08:25:30.679Z,5.50
2018-12-10T08:28:11.330Z,5.60
2018-12-10T08:30:42.407Z,5.60
2018-12-10T08:33:13.358Z,5.60
2018-12-10T08:35:43.869Z,5.60
2018-12-10T08:38:16.012Z,5.60
2018-12-10T08:40:47.840Z,5.60
2018-12-10T08:43:20.456Z,5.60
2018-12-10T08:45:59.376Z,5.60
2018-12-10T08:48:35.154Z,5.60
2018-12-10T08:51:06.323Z,5.60
2018-12-10T08:53:37.721Z,5.60
2018-12-10T08:56:07.877Z,5.70
2018-12-10T08:58:39.358Z,5.70
2018-12-10T09:01:19.793Z,5.80
2018-12-10T09:03:54.894Z,5.90
2018-12-10T09:06:26.785Z,5.90
2018-12-10T09:08:58.685Z,5.90
2018-12-10T09:11:38.637Z,6.10
2018-12-10T09:14:10.885Z,6.10
2018-12-10T09:16:42.197Z,6.10
2018-12-10T09:19:14.066Z,6.10
2018-12-10T09:21:46.344Z,6.10
2018-12-10T09:24:29.239Z,6.10
2018-12-10T09:27:05.266Z,6.20
2018-12-10T09:29:36.193Z,6.20
2018-12-10T09:36:08.622Z,6.20
2018-12-10T09:38:56.101Z,6.20
2018-12-10T09:41:38.358Z,6.30
2018-12-10T09:44:15.944Z,6.40
2018-12-10T09:52:45.615Z,6.70
2018-12-10T09:55:22.925Z,6.80
2018-12-10T10:03:14.566Z,7.10
2018-12-10T10:11:20.512Z,7.10
2018-12-10T10:14:02.150Z,7.20
2018-12-10T10:19:35.110Z,7.30
2018-12-10T10:31:22.129Z,7.30
2018-12-10T11:10:30.164Z,7.70
2018-12-10T11:13:03.823Z,8.00
2018-12-10T11:15:41.883Z,8.10
2018-12-10T11:18:25.581Z,8.20
2018-12-10T11:21:09.184Z,8.10
2018-12-10T11:23:41.323Z,8.10
2018-12-10T11:26:11.786Z,8.60
2018-12-10T11:28:54.091Z,8.90
2018-12-10T11:31:27.861Z,9.00
2018-12-10T11:34:11.655Z,8.50
2018-12-10T11:39:46.456Z,8.20
2018-12-10T11:53:24.080Z,8.20
2018-12-10T11:56:01.120Z,8.20
2018-12-10T11:58:37.006Z,8.20
2018-12-10T12:01:09.167Z,8.20
2018-12-10T12:03:43.294Z,8.30
2018-12-10T12:06:14.705Z,8.30
2018-12-10T12:09:10.243Z,8.30
2018-12-10T12:12:07.070Z,8.20
2018-12-10T12:14:56.227Z,8.30
2018-12-10T12:17:36.062Z,8.40
2018-12-10T12:20:15.942Z,8.40
2018-12-10T12:26:28.519Z,8.40
2018-12-10T12:29:17.528Z,8.40
2018-12-10T12:31:52.636Z,8.40
2018-12-10T12:34:26.293Z,8.30
2018-12-10T12:36:58.031Z,8.30
2018-12-10T12:39:33.003Z,8.40
2018-12-10T12:50:25.660Z,8.50
2018-12-10T12:53:09.446Z,8.60
2018-12-10T12:55:53.437Z,8.60
2018-12-10T12:58:31.548Z,8.70
2018-12-10T13:10:25.243Z,8.80
2018-12-10T13:13:01.961Z,8.90
2018-12-10T13:18:31.271Z,9.10
2018-12-10T13:21:11.442Z,9.20
2018-12-10T13:23:50.059Z,9.30
2018-12-10T13:26:29.950Z,9.40
2018-12-10T13:29:07.716Z,9.30
2018-12-10T13:34:21.575Z,9.30
2018-12-10T13:36:56.972Z,9.30
2018-12-10T13:39:37.907Z,9.20
2018-12-10T13:42:15.735Z,9.20
2018-12-10T13:47:41.261Z,9.10
2018-12-10T13:50:36.946Z,9.10
2018-12-10T13:53:16.706Z,9.00
2018-12-10T13:58:34.160Z,9.00
2018-12-10T14:01:09.540Z,9.00
2018-12-10T14:03:42.475Z,9.00
2018-12-10T14:06:21.181Z,9.00
2018-12-10T14:08:52.137Z,9.00
2018-12-10T14:11:23.898Z,8.90
2018-12-10T14:13:55.336Z,8.90
2018-12-10T14:16:30.059Z,8.80
2018-12-10T14:21:47.638Z,8.90
2018-12-10T14:24:23.336Z,8.90
2018-12-10T14:29:55.780Z,9.00
2018-12-10T14:35:11.685Z,9.00
2018-12-10T14:37:48.211Z,9.00
2018-12-10T14:40:25.652Z,9.00
2018-12-10T14:43:00.824Z,9.10
2018-12-10T14:45:38.286Z,9.00
2018-12-10T14:48:11.374Z,9.00
2018-12-10T14:50:44.773Z,8.90
2018-12-10T14:53:17.456Z,8.90
2018-12-10T14:55:53.774Z,8.80
2018-12-10T15:01:09.489Z,8.80
2018-12-10T15:03:45.445Z,8.80
2018-12-10T15:06:32.640Z,8.80
2018-12-10T15:09:09.126Z,8.90
2018-12-10T15:11:48.468Z,8.70
2018-12-10T15:17:12.921Z,8.80
2018-12-10T15:22:50.783Z,8.70
2018-12-10T15:25:22.312Z,8.60
2018-12-10T15:27:57.568Z,8.60
2018-12-10T15:30:28.844Z,8.60
2018-12-10T15:35:39.068Z,8.50
2018-12-10T15:41:01.717Z,8.40
2018-12-10T15:46:21.977Z,8.20
2018-12-10T15:57:21.849Z,7.90
2018-12-10T16:00:03.362Z,7.90
2018-12-10T16:05:27.391Z,7.80
2018-12-10T16:25:05.115Z,7.80
2018-12-10T16:27:43.441Z,7.80
2018-12-10T16:35:56.917Z,7.80
2018-12-10T16:38:38.404Z,7.80
2018-12-10T16:46:40.666Z,7.80
2018-12-10T16:49:23.167Z,7.80
2018-12-10T17:02:59.304Z,7.90
2018-12-10T17:20:45.559Z,7.80
2018-12-10T17:31:31.116Z,7.90
2018-12-10T17:34:09.443Z,7.90
2018-12-10T17:39:52.533Z,7.90
2018-12-10T17:45:33.298Z,7.90
2018-12-10T17:48:04.403Z,7.90
2018-12-10T17:59:43.773Z,7.80
2018-12-10T18:11:06.753Z,8.00
2018-12-10T18:16:28.382Z,7.90
2018-12-10T18:24:37.469Z,7.70
2018-12-10T18:27:17.153Z,7.70
2018-12-10T18:29:53.115Z,7.70
2018-12-10T18:33:00.394Z,7.70
2018-12-10T18:39:08.353Z,7.80
2018-12-10T18:56:22.088Z,7.70
2018-12-10T19:04:24.787Z,7.60
2018-12-10T19:10:03.962Z,7.50
2018-12-10T19:12:44.047Z,7.50
2018-12-10T19:15:19.838Z,7.50
2018-12-10T19:17:52.100Z,7.50
2018-12-10T19:20:26.141Z,7.40
2018-12-10T19:23:01.321Z,7.40
2018-12-10T19:28:16.777Z,7.40
2018-12-10T19:30:50.432Z,7.40
2018-12-10T19:33:36.207Z,7.50
2018-12-10T19:36:08.820Z,7.60
2018-12-10T19:38:41.030Z,7.80
2018-12-10T19:41:17.229Z,7.80
2018-12-10T19:43:49.515Z,7.80
2018-12-10T19:46:24.791Z,7.80
2018-12-10T19:49:14.865Z,7.90
2018-12-10T19:58:45.951Z,7.80
2018-12-10T20:04:23.484Z,7.60
2018-12-10T20:07:12.658Z,7.60
